createdAt,value
2018-12-15T00:00:37.316Z,97026.07
2018-12-15T00:03:06.787Z,97034.60
2018-12-15T00:05:36.363Z,97031.38
2018-12-15T00:08:05.206Z,97037.63
2018-12-15T00:10:34.935Z,97038.92
2018-12-15T00:13:05.108Z,97042.58
2018-12-15T00:15:35.023Z,97039.14
2018-12-15T00:18:04.678Z,97046.05
2018-12-15T00:20:33.584Z,97045.41
2018-12-15T00:23:04.673Z,97046.25
2018-12-15T00:25:33.912Z,97047.77
2018-12-15T00:28:03.695Z,97049.52
2018-12-15T00:30:33.894Z,97050.22
2018-12-15T00:33:03.785Z,97045.05
2018-12-15T00:35:33.926Z,97043.34
2018-12-15T00:38:04.467Z,97048.17
2018-12-15T00:40:33.069Z,97044.73
2018-12-15T00:43:03.415Z,97046.41
2018-12-15T00:45:33.056Z,97046.31
2018-12-15T00:48:04.516Z,97049.30
2018-12-15T00:50:34.207Z,97057.13
2018-12-15T00:53:03.846Z,97050.80
2018-12-15T00:55:33.013Z,97059.55
2018-12-15T00:58:03.074Z,97065.24
2018-12-15T01:00:34.154Z,97004.73
2018-12-15T01:03:03.802Z,97068.06
2018-12-15T01:05:33.708Z,97067.69
2018-12-15T01:08:02.938Z,97072.17
2018-12-15T01:10:32.733Z,97075.64
2018-12-15T01:13:02.533Z,97083.69
2018-12-15T01:15:38.929Z,97080.88
2018-12-15T01:18:09.138Z,97086.09
2018-12-15T01:20:38.494Z,97078.08
2018-12-15T01:23:07.009Z,97082.48
2018-12-15T01:25:37.338Z,97080.05
2018-12-15T01:28:07.179Z,97085.86
2018-12-15T01:30:36.775Z,97094.50
2018-12-15T01:33:09.266Z,97092.10
2018-12-15T01:35:39.430Z,97091.59
2018-12-15T01:38:08.055Z,97090.37
2018-12-15T01:40:36.605Z,96279.96
2018-12-15T01:43:06.058Z,97093.42
2018-12-15T01:45:35.765Z,97090.06
2018-12-15T01:48:05.881Z,97088.91
2018-12-15T01:50:34.645Z,97091.56
2018-12-15T01:53:04.997Z,97098.13
2018-12-15T01:55:37.930Z,97101.23
2018-12-15T01:58:07.433Z,97106.48
2018-12-15T02:00:36.541Z,97104.41
2018-12-15T02:03:07.024Z,97101.00
2018-12-15T02:05:35.576Z,97100.71
2018-12-15T02:08:05.415Z,97101.27
2018-12-15T02:10:35.175Z,97098.55
2018-12-15T02:13:04.371Z,97094.61
2018-12-15T02:15:33.358Z,97098.75
2018-12-15T02:19:31.504Z,97106.23
2018-12-15T02:22:01.061Z,97105.51
2018-12-15T02:24:30.497Z,97111.34
2018-12-15T02:26:59.862Z,97106.47
2018-12-15T02:29:29.953Z,97113.33
2018-12-15T02:32:01.879Z,97114.18
2018-12-15T02:34:31.794Z,97105.92
2018-12-15T02:37:00.957Z,97113.98
2018-12-15T02:39:30.490Z,97119.09
2018-12-15T02:41:59.990Z,97120.50
2018-12-15T02:44:29.278Z,97124.44
2018-12-15T02:46:58.161Z,97125.84
2018-12-15T02:49:26.754Z,97136.74
2018-12-15T02:51:55.282Z,97132.79
2018-12-15T02:54:24.963Z,97131.69
2018-12-15T02:56:54.532Z,97139.45
2018-12-15T02:59:24.387Z,97177.61
2018-12-15T03:01:55.520Z,97134.25
2018-12-15T03:04:24.553Z,97133.38
2018-12-15T03:06:53.801Z,97129.48
2018-12-15T03:09:22.657Z,97130.02
2018-12-15T03:12:00.683Z,97131.38
2018-12-15T03:14:30.296Z,97131.80
2018-12-15T03:17:07.436Z,97138.70
2018-12-15T03:19:37.479Z,97139.23
2018-12-15T03:22:06.065Z,97154.39
2018-12-15T03:24:38.055Z,97138.59
2018-12-15T03:27:07.599Z,97135.11
2018-12-15T03:29:37.059Z,97134.61
2018-12-15T03:32:06.771Z,97136.89
2018-12-15T03:34:36.550Z,97145.19
2018-12-15T03:37:07.558Z,96373.73
2018-12-15T03:39:37.690Z,97135.14
2018-12-15T03:42:14.149Z,97137.24
2018-12-15T03:44:45.457Z,97138.03
2018-12-15T03:47:15.594Z,97136.83
2018-12-15T03:49:44.760Z,97141.94
2018-12-15T03:52:14.956Z,97147.55
2018-12-15T03:54:44.964Z,97139.65
2018-12-15T03:57:14.342Z,97142.20
2018-12-15T03:59:43.862Z,97143.16
2018-12-15T04:02:14.098Z,97143.30
2018-12-15T04:04:44.135Z,97145.41
2018-12-15T04:07:14.201Z,97146.80
2018-12-15T04:09:43.401Z,97152.63
2018-12-15T04:12:12.697Z,97155.23
2018-12-15T04:14:41.511Z,97156.80
2018-12-15T04:17:11.727Z,97153.40
2018-12-15T04:19:40.303Z,97164.41
2018-12-15T04:22:21.954Z,97163.91
2018-12-15T04:24:50.491Z,97157.33
2018-12-15T04:27:21.763Z,97149.96
2018-12-15T04:29:51.061Z,97147.97
2018-12-15T04:32:19.930Z,97151.05
2018-12-15T04:34:49.030Z,97150.68
2018-12-15T04:37:20.059Z,97146.43
2018-12-15T04:39:49.403Z,97139.37
2018-12-15T04:42:20.178Z,97142.63
2018-12-15T04:44:50.975Z,97139.60
2018-12-15T04:47:21.112Z,97138.75
2018-12-15T04:49:49.690Z,97136.77
2018-12-15T04:52:21.206Z,97132.91
2018-12-15T04:54:51.223Z,97136.95
2018-12-15T04:57:27.083Z,97134.36
2018-12-15T04:59:56.657Z,97139.71
2018-12-15T05:02:25.967Z,97133.50
2018-12-15T05:05:01.423Z,97130.95
2018-12-15T05:07:30.137Z,97134.23
2018-12-15T05:10:00.290Z,97134.98
2018-12-15T05:12:29.243Z,97139.41
2018-12-15T05:14:57.895Z,97133.47
2018-12-15T05:17:27.591Z,97136.11
2018-12-15T05:19:56.953Z,97125.92
2018-12-15T05:22:26.407Z,97134.77
2018-12-15T05:24:55.625Z,97133.97
2018-12-15T05:27:28.175Z,97127.84
2018-12-15T05:29:58.057Z,97124.88
2018-12-15T05:32:27.539Z,97125.34
2018-12-15T05:34:57.078Z,97127.41
2018-12-15T05:37:28.808Z,97125.06
2018-12-15T05:39:57.879Z,97130.31
2018-12-15T05:42:27.052Z,97132.02
2018-12-15T05:44:58.388Z,97124.97
2018-12-15T05:47:29.581Z,97123.04
2018-12-15T05:49:58.197Z,97123.86
2018-12-15T05:59:14.246Z,97129.77
2018-12-15T06:01:43.123Z,97131.40
2018-12-15T06:04:13.723Z,97134.24
2018-12-15T06:06:42.542Z,97133.24
2018-12-15T06:09:12.650Z,97135.66
2018-12-15T06:11:43.143Z,97133.50
2018-12-15T06:14:15.466Z,97136.06
2018-12-15T06:16:47.317Z,97136.44
2018-12-15T06:19:20.355Z,97141.02
2018-12-15T06:21:50.544Z,97141.36
2018-12-15T06:24:20.170Z,97141.30
2018-12-15T06:26:50.646Z,97141.73
2018-12-15T06:29:19.822Z,97132.50
2018-12-15T06:31:50.873Z,97135.89
2018-12-15T06:34:20.930Z,97138.83
2018-12-15T06:36:50.771Z,97137.18
2018-12-15T06:39:21.765Z,97143.73
2018-12-15T06:41:52.626Z,97058.31
2018-12-15T06:44:22.945Z,97141.30
2018-12-15T06:46:55.490Z,97139.70
2018-12-15T06:52:21.148Z,96460.22
2018-12-15T06:54:49.799Z,97196.84
2018-12-15T06:57:19.194Z,97140.08
2018-12-15T06:59:48.521Z,97141.22
2018-12-15T07:02:17.390Z,97148.86
2018-12-15T07:04:50.559Z,97149.52
2018-12-15T07:07:20.151Z,97148.66
2018-12-15T07:09:51.126Z,97145.37
2018-12-15T07:12:19.655Z,97147.81
2018-12-15T07:14:48.288Z,97142.58
2018-12-15T07:17:17.002Z,97149.00
2018-12-15T07:19:48.449Z,97148.80
2018-12-15T07:22:18.049Z,97147.88
2018-12-15T07:24:49.022Z,97145.38
2018-12-15T07:27:18.179Z,97152.59
2018-12-15T07:29:48.161Z,97147.55
2018-12-15T07:32:18.060Z,97147.55
2018-12-15T07:34:48.074Z,97148.00
2018-12-15T07:37:16.613Z,97151.29
2018-12-15T07:39:47.301Z,97153.34
2018-12-15T07:42:17.930Z,97153.22
2018-12-15T07:44:48.075Z,97163.09
2018-12-15T07:47:17.815Z,97166.71
2018-12-15T07:49:47.222Z,97159.98
2018-12-15T07:52:18.280Z,97160.67
2018-12-15T07:54:46.962Z,97157.26
2018-12-15T07:57:16.241Z,97155.37
2018-12-15T07:59:45.102Z,97157.35
2018-12-15T08:02:17.243Z,97164.80
2018-12-15T08:04:46.187Z,97168.25
2018-12-15T08:07:16.568Z,97172.36
2018-12-15T08:09:49.308Z,97161.40
2018-12-15T08:12:23.631Z,97173.05
2018-12-15T08:14:52.208Z,97170.52
2018-12-15T08:17:22.262Z,97173.87
2018-12-15T08:19:52.350Z,97180.52
2018-12-15T08:22:26.293Z,97172.45
2018-12-15T08:24:54.947Z,97176.69
2018-12-15T08:27:23.487Z,97174.86
2018-12-15T08:29:54.670Z,97174.66
2018-12-15T08:32:23.946Z,97174.87
2018-12-15T08:34:53.317Z,97161.50
2018-12-15T08:37:22.823Z,97169.73
2018-12-15T08:39:52.319Z,97166.41
2018-12-15T08:42:22.134Z,97169.94
2018-12-15T08:44:52.197Z,97173.67
2018-12-15T08:47:21.148Z,97178.52
2018-12-15T08:49:52.037Z,97174.66
2018-12-15T08:52:21.215Z,97173.56
2018-12-15T08:54:50.760Z,97178.37
2018-12-15T08:57:26.021Z,97172.73
2018-12-15T08:59:55.826Z,97174.95
2018-12-15T09:02:25.302Z,97160.71
2018-12-15T09:04:56.335Z,97176.43
2018-12-15T09:07:25.477Z,97178.91
2018-12-15T09:09:54.770Z,97183.48
2018-12-15T09:12:25.226Z,97186.05
2018-12-15T09:14:53.866Z,97181.29
2018-12-15T09:17:23.296Z,97181.61
2018-12-15T09:19:52.566Z,97182.48
2018-12-15T09:22:22.065Z,97189.27
2018-12-15T09:24:53.448Z,97186.07
2018-12-15T09:27:23.582Z,97185.28
2018-12-15T09:29:55.205Z,97232.48
2018-12-15T09:32:26.231Z,97181.91
2018-12-15T09:34:55.700Z,97180.06
2018-12-15T09:37:24.437Z,97180.51
2018-12-15T09:39:53.871Z,97170.07
2018-12-15T09:42:24.242Z,97176.38
2018-12-15T09:44:53.028Z,97176.77
2018-12-15T09:47:21.669Z,97178.67
2018-12-15T09:49:52.444Z,97178.56
2018-12-15T09:52:22.801Z,97173.72
2018-12-15T09:54:53.162Z,97170.38
2018-12-15T09:57:21.811Z,97108.98
2018-12-15T09:59:52.035Z,97179.73
2018-12-15T10:02:21.832Z,97086.12
2018-12-15T10:04:51.180Z,97172.16
2018-12-15T10:07:23.563Z,97174.47
2018-12-15T10:09:52.936Z,97174.13
2018-12-15T10:12:23.196Z,97171.39
2018-12-15T10:14:52.181Z,97169.19
2018-12-15T10:17:22.366Z,97162.09
2018-12-15T10:19:52.938Z,97165.18
2018-12-15T10:22:21.858Z,97162.56
2018-12-15T10:24:52.105Z,97159.94
2018-12-15T10:27:22.330Z,97152.70
2018-12-15T10:29:56.281Z,95872.41
2018-12-15T10:32:30.515Z,97153.02
2018-12-15T10:35:00.183Z,97152.78
2018-12-15T10:37:28.788Z,97152.41
2018-12-15T10:40:00.534Z,97155.28
2018-12-15T10:42:29.423Z,97154.18
2018-12-15T10:44:59.972Z,97154.25
2018-12-15T10:47:29.003Z,97149.08
2018-12-15T10:49:58.292Z,97151.16
2018-12-15T10:52:27.177Z,97146.09
2018-12-15T10:54:56.787Z,97145.02
2018-12-15T10:57:25.373Z,97146.08
2018-12-15T10:59:54.154Z,97144.38
2018-12-15T11:02:23.605Z,97143.88
2018-12-15T11:04:52.506Z,97137.42
2018-12-15T11:07:23.461Z,97127.83
2018-12-15T11:09:53.108Z,97128.59
2018-12-15T11:12:21.689Z,97127.98
2018-12-15T11:14:51.182Z,97116.56
2018-12-15T11:17:21.311Z,97119.75
2018-12-15T11:19:51.284Z,97111.48
2018-12-15T11:22:20.443Z,97117.59
2018-12-15T11:24:50.504Z,97111.66
2018-12-15T11:27:19.075Z,97116.72
2018-12-15T11:29:49.973Z,97124.08
2018-12-15T11:32:20.114Z,97120.25
2018-12-15T11:34:49.654Z,97114.87
2018-12-15T11:37:18.455Z,97107.63
2018-12-15T11:39:48.792Z,97105.07
2018-12-15T11:42:27.982Z,97104.12
2018-12-15T11:44:57.631Z,97102.03
2018-12-15T11:47:27.126Z,97099.88
2018-12-15T11:50:00.558Z,97097.27
2018-12-15T11:52:29.153Z,97090.13
2018-12-15T11:54:58.145Z,97092.17
2018-12-15T11:57:27.751Z,97083.25
2018-12-15T11:59:57.665Z,97077.20
2018-12-15T12:02:31.897Z,97079.17
2018-12-15T12:05:00.192Z,97076.08
2018-12-15T12:07:29.222Z,97057.86
2018-12-15T12:09:58.105Z,97058.13
2018-12-15T12:12:28.164Z,97051.63
2018-12-15T12:14:56.708Z,97056.02
2018-12-15T12:17:25.432Z,97048.76
2018-12-15T12:19:56.042Z,97056.47
2018-12-15T12:22:25.922Z,97015.00
2018-12-15T12:24:55.464Z,97056.50
2018-12-15T12:27:26.437Z,97060.77
2018-12-15T12:29:55.897Z,97060.16
2018-12-15T12:32:24.657Z,97061.15
2018-12-15T12:34:54.193Z,97055.77
2018-12-15T12:37:25.964Z,97240.02
2018-12-15T12:39:57.323Z,97058.37
2018-12-15T12:42:26.774Z,97054.51
2018-12-15T12:44:56.903Z,97054.77
2018-12-15T12:47:26.200Z,97054.21
2018-12-15T12:49:57.003Z,97055.79
2018-12-15T12:52:27.913Z,97056.33
2018-12-15T12:54:58.754Z,97061.61
2018-12-15T12:57:28.015Z,97055.11
2018-12-15T12:59:57.281Z,97057.06
2018-12-15T13:02:26.257Z,97044.17
2018-12-15T13:04:55.157Z,97046.41
2018-12-15T13:07:25.907Z,97049.69
2018-12-15T13:09:54.623Z,97043.78
2018-12-15T13:12:26.080Z,97042.80
2018-12-15T13:14:56.231Z,97042.48
2018-12-15T13:17:27.000Z,97046.60
2018-12-15T13:20:03.774Z,97038.86
2018-12-15T13:22:33.916Z,97034.19
2018-12-15T13:25:04.381Z,97029.22
2018-12-15T13:27:34.979Z,97028.70
2018-12-15T13:30:04.488Z,97031.05
2018-12-15T13:32:33.940Z,97026.07
2018-12-15T13:35:03.054Z,97033.15
2018-12-15T13:37:32.930Z,97035.29
2018-12-15T13:40:03.775Z,97036.58
2018-12-15T13:42:32.888Z,97039.12
2018-12-15T13:45:01.984Z,97041.35
2018-12-15T13:47:31.713Z,97044.75
2018-12-15T13:50:02.494Z,97039.12
2018-12-15T13:52:31.802Z,97040.68
2018-12-15T13:55:01.061Z,97041.44
2018-12-15T13:57:29.935Z,97046.55
2018-12-15T13:59:58.702Z,97039.86
2018-12-15T14:02:28.375Z,97036.80
2018-12-15T14:04:57.811Z,97038.42
2018-12-15T14:07:28.135Z,97041.13
2018-12-15T14:09:57.519Z,97042.06
2018-12-15T14:12:26.033Z,97045.06
2018-12-15T14:14:57.684Z,97048.05
2018-12-15T14:17:27.898Z,97046.98
2018-12-15T14:19:57.692Z,97052.84
2018-12-15T14:22:27.856Z,97043.49
2018-12-15T14:24:56.963Z,97044.38
2018-12-15T14:27:26.088Z,97051.22
2018-12-15T14:29:54.707Z,97049.44
2018-12-15T14:32:24.504Z,97046.36
2018-12-15T14:34:53.722Z,97043.91
2018-12-15T14:37:22.722Z,97038.52
2018-12-15T14:39:52.251Z,97031.51
2018-12-15T14:42:22.019Z,97032.91
2018-12-15T14:44:52.026Z,97038.83
2018-12-15T14:47:21.490Z,97032.30
2018-12-15T14:49:50.415Z,97038.72
2018-12-15T14:52:19.247Z,97038.55
2018-12-15T14:54:49.015Z,97035.97
2018-12-15T14:57:23.114Z,97029.30
2018-12-15T14:59:52.770Z,97027.50
2018-12-15T15:02:23.478Z,97032.62
2018-12-15T15:04:54.308Z,97025.79
2018-12-15T15:07:24.307Z,97024.73
2018-12-15T15:09:54.399Z,97020.77
2018-12-15T15:12:26.060Z,97016.81
2018-12-15T15:14:56.512Z,97026.25
2018-12-15T15:17:26.238Z,97018.47
2018-12-15T15:19:55.805Z,97017.23
2018-12-15T15:22:25.978Z,97007.94
2018-12-15T15:24:58.959Z,97010.91
2018-12-15T15:27:28.875Z,97007.61
2018-12-15T15:29:59.974Z,97008.92
2018-12-15T15:32:29.050Z,97009.45
2018-12-15T15:34:58.046Z,97012.50
2018-12-15T15:37:27.555Z,97001.75
2018-12-15T15:39:56.619Z,97008.31
2018-12-15T15:42:25.764Z,96996.48
2018-12-15T15:44:54.928Z,96998.84
2018-12-15T15:47:24.305Z,96995.58
2018-12-15T15:49:53.694Z,96997.73
2018-12-15T15:52:25.433Z,96991.10
2018-12-15T15:54:55.044Z,96982.79
2018-12-15T15:57:24.552Z,96985.86
2018-12-15T15:59:54.873Z,96981.16
2018-12-15T16:02:23.902Z,96983.70
2018-12-15T16:04:55.784Z,96978.14
2018-12-15T16:07:25.431Z,96971.39
2018-12-15T16:09:54.691Z,96967.41
2018-12-15T16:12:24.892Z,96964.55
2018-12-15T16:14:53.815Z,96958.89
2018-12-15T16:17:24.019Z,96963.84
2018-12-15T16:19:53.164Z,96956.61
2018-12-15T16:22:23.330Z,96865.12
2018-12-15T16:24:54.531Z,96960.72
2018-12-15T16:27:24.347Z,96954.80
2018-12-15T16:29:53.080Z,96946.41
2018-12-15T16:32:22.687Z,96952.21
2018-12-15T16:34:52.035Z,96954.34
2018-12-15T16:37:21.544Z,96950.23
2018-12-15T16:39:50.533Z,96949.69
2018-12-15T16:42:19.924Z,96950.28
2018-12-15T16:44:49.399Z,96937.14
2018-12-15T16:47:19.109Z,96939.38
2018-12-15T16:49:49.244Z,96935.17
2018-12-15T16:52:18.872Z,96939.48
2018-12-15T16:54:50.526Z,96939.94
2018-12-15T16:57:20.368Z,96942.97
2018-12-15T16:59:49.416Z,96941.67
2018-12-15T17:02:18.850Z,96943.53
2018-12-15T17:04:49.401Z,96996.30
2018-12-15T17:07:19.422Z,96940.22
2018-12-15T17:09:48.415Z,96931.14
2018-12-15T17:12:17.646Z,96927.66
2018-12-15T17:14:47.776Z,96924.27
2018-12-15T17:17:19.217Z,96922.08
2018-12-15T17:19:49.179Z,96922.14
2018-12-15T17:22:18.855Z,96920.75
2018-12-15T17:24:48.929Z,96920.73
2018-12-15T17:27:30.953Z,96914.75
2018-12-15T17:30:00.431Z,96912.72
2018-12-15T17:32:29.501Z,96907.13
2018-12-15T17:34:58.053Z,97046.80
2018-12-15T17:37:28.665Z,96909.55
2018-12-15T17:40:00.082Z,96911.52
2018-12-15T17:42:30.176Z,96908.63
2018-12-15T17:45:01.315Z,96905.02
2018-12-15T17:47:29.907Z,96899.23
2018-12-15T17:49:58.494Z,96903.09
2018-12-15T17:52:29.679Z,96893.75
2018-12-15T17:54:59.252Z,96901.33
2018-12-15T17:57:28.042Z,96883.34
2018-12-15T17:59:56.790Z,96889.91
2018-12-15T18:02:27.144Z,96889.91
2018-12-15T18:04:55.841Z,96450.06
2018-12-15T18:07:25.819Z,96878.04
2018-12-15T18:09:55.647Z,96876.19
2018-12-15T18:12:25.482Z,96873.16
2018-12-15T18:14:54.034Z,96875.38
2018-12-15T18:17:23.105Z,96864.33
2018-12-15T18:19:51.691Z,96854.06
2018-12-15T18:22:21.263Z,96856.16
2018-12-15T18:24:53.247Z,96852.72
2018-12-15T18:27:23.970Z,96846.14
2018-12-15T18:29:54.347Z,96843.46
2018-12-15T18:32:28.173Z,96839.83
2018-12-15T18:34:57.651Z,96832.53
2018-12-15T18:37:27.297Z,96830.87
2018-12-15T18:39:57.717Z,96828.41
2018-12-15T18:42:26.681Z,96825.42
2018-12-15T18:44:55.483Z,96818.73
2018-12-15T18:47:25.146Z,96811.43
2018-12-15T18:49:55.055Z,96811.80
2018-12-15T18:52:27.482Z,96805.59
2018-12-15T18:54:56.273Z,96813.41
2018-12-15T18:57:27.158Z,96813.61
2018-12-15T18:59:57.148Z,96805.17
2018-12-15T19:02:26.277Z,96810.61
2018-12-15T19:04:56.877Z,96801.13
2018-12-15T19:07:25.579Z,96793.55
2018-12-15T19:09:56.341Z,96791.12
2018-12-15T19:12:27.970Z,96790.13
2018-12-15T19:14:57.692Z,96783.81
2018-12-15T19:17:28.178Z,96784.78
2018-12-15T19:19:58.686Z,96780.17
2018-12-15T19:22:27.314Z,96770.31
2018-12-15T19:24:59.191Z,96770.89
2018-12-15T19:27:28.370Z,96762.52
2018-12-15T19:29:57.870Z,96755.08
2018-12-15T19:32:28.410Z,96747.50
2018-12-15T19:34:57.480Z,96749.88
2018-12-15T19:37:26.134Z,96750.02
2018-12-15T19:39:56.041Z,96743.60
2018-12-15T19:42:27.404Z,96741.41
2018-12-15T19:44:56.750Z,96733.71
2018-12-15T19:47:27.242Z,96735.80
2018-12-15T19:49:57.003Z,96727.52
2018-12-15T19:52:26.661Z,96718.38
2018-12-15T19:54:56.637Z,96717.85
2018-12-15T19:57:40.687Z,96715.06
2018-12-15T20:00:10.687Z,96707.43
2018-12-15T20:02:39.543Z,96709.13
2018-12-15T20:05:12.484Z,96701.72
2018-12-15T20:07:41.108Z,96698.17
2018-12-15T20:10:11.883Z,96701.86
2018-12-15T20:12:41.510Z,96704.41
2018-12-15T20:15:10.207Z,96696.69
2018-12-15T20:17:41.038Z,96695.67
2018-12-15T20:20:12.185Z,96691.07
2018-12-15T20:22:42.740Z,96691.22
2018-12-15T20:25:13.264Z,96689.23
2018-12-15T20:27:43.510Z,96686.64
2018-12-15T20:30:14.082Z,96684.07
2018-12-15T20:32:44.257Z,96673.44
2018-12-15T20:35:14.965Z,96662.09
2018-12-15T20:37:43.702Z,96664.09
2018-12-15T20:40:13.675Z,96657.94
2018-12-15T20:42:44.364Z,96652.97
2018-12-15T20:45:13.774Z,96656.95
2018-12-15T20:47:43.361Z,96654.65
2018-12-15T20:50:12.873Z,96653.64
2018-12-15T20:52:47.487Z,96649.46
2018-12-15T20:55:14.945Z,96651.39
2018-12-15T20:57:44.936Z,96652.38
2018-12-15T21:00:14.615Z,96647.45
2018-12-15T21:02:43.462Z,96639.52
2018-12-15T21:05:13.162Z,96648.02
2018-12-15T21:07:42.370Z,96685.34
2018-12-15T21:10:13.959Z,96637.01
2018-12-15T21:12:42.626Z,96630.56
2018-12-15T21:15:19.437Z,96617.05
2018-12-15T21:17:50.126Z,96614.02
2018-12-15T21:20:19.087Z,96605.52
2018-12-15T21:22:47.868Z,96610.02
2018-12-15T21:25:17.850Z,96610.52
2018-12-15T21:27:47.067Z,96603.99
2018-12-15T21:30:19.442Z,96607.13
2018-12-15T21:32:48.920Z,96598.48
2018-12-15T21:35:19.571Z,96588.84
2018-12-15T21:37:49.192Z,96578.25
2018-12-15T21:40:18.616Z,96688.97
2018-12-15T21:42:50.926Z,96576.31
2018-12-15T21:45:20.831Z,96580.76
2018-12-15T21:47:57.397Z,96574.64
2018-12-15T21:50:23.614Z,96573.73
2018-12-15T21:52:53.465Z,96574.00
2018-12-15T21:55:23.093Z,96563.17
2018-12-15T21:57:53.161Z,96548.73
2018-12-15T22:00:22.715Z,96543.94
2018-12-15T22:02:51.604Z,96554.72
2018-12-15T22:05:23.098Z,96549.31
2018-12-15T22:07:52.821Z,96539.75
2018-12-15T22:10:21.392Z,96538.58
2018-12-15T22:13:01.493Z,96549.01
2018-12-15T22:15:32.951Z,96557.38
2018-12-15T22:18:02.106Z,96536.32
2018-12-15T22:20:32.859Z,96537.76
2018-12-15T22:23:02.924Z,96539.45
2018-12-15T22:25:31.683Z,95350.09
2018-12-15T22:28:00.194Z,96516.20
2018-12-15T22:30:30.593Z,96509.87
2018-12-15T22:33:00.277Z,96510.58
2018-12-15T22:35:30.536Z,96504.70
2018-12-15T22:38:00.059Z,96498.61
2018-12-15T22:40:30.247Z,96490.11
2018-12-15T22:43:00.221Z,96482.02
2018-12-15T22:45:30.322Z,96476.45
2018-12-15T22:48:01.029Z,96475.52
2018-12-15T22:50:30.337Z,96471.44
2018-12-15T22:52:59.441Z,96142.01
2018-12-15T22:55:28.313Z,96449.91
2018-12-15T22:57:57.239Z,96441.36
2018-12-15T23:00:30.381Z,96438.73
2018-12-15T23:02:59.740Z,96424.86
2018-12-15T23:05:29.390Z,96423.86
2018-12-15T23:07:59.868Z,96420.69
2018-12-15T23:10:30.856Z,96418.59
2018-12-15T23:13:00.392Z,96410.58
2018-12-15T23:15:30.954Z,96406.61
2018-12-15T23:17:59.470Z,96403.11
2018-12-15T23:20:29.160Z,96394.06
2018-12-15T23:22:58.618Z,96388.50
2018-12-15T23:25:27.528Z,96388.72
2018-12-15T23:27:57.290Z,95582.73
2018-12-15T23:30:27.275Z,96381.63
2018-12-15T23:32:57.043Z,96378.00
2018-12-15T23:35:26.124Z,96384.97
2018-12-15T23:37:55.451Z,96380.18
2018-12-15T23:40:24.001Z,96377.37
2018-12-15T23:42:55.602Z,96371.31
2018-12-15T23:45:24.418Z,96374.16
2018-12-15T23:47:53.697Z,96361.59
2018-12-15T23:50:22.209Z,96349.78
2018-12-15T23:52:54.818Z,96347.53
2018-12-15T23:55:23.978Z,96349.06
2018-12-15T23:57:54.432Z,96348.92
